Aviation Digital Data Service (ADDS)

Output produced by METARs form (0342 UTC 19 July 2018)
found at http://www.aviationweather.gov/adds/metars/
 
DFOO 190300Z 00000KT CAVOK 23/22 Q1015
TAF DFOO 182300Z 1900/1924 22008KT 9999 FEW016 
     TEMPO 1904/1916 4000 TSRA SCT016 SCT033CB
       
DFFD 190300Z 18006KT 8000 -TSRA SCT020 FEW033CB 26/23 Q1013 TEMPO 4000 TSRA
TAF DFFD 182300Z 1900/2006 24008KT 9999 FEW020 
     TEMPO 1900/1904 4000 TSRA SCT020 SCT036CB 
     TEMPO 1904/1912 VRB25G40KT 2500 SQ BLDU TSRA SCT020 SCT036CB